Time;durP1;ratioP1;P1;durP2;ratioP2;P2;SDS_P1;SDS_P2;PMS_P1;PMS_P2;Temp;Humidity;BMP_temperature;BMP_pressure;BME280_temperature;BME280_humidity;BME280_pressure;Samples;Min_cycle;Max_cycle;Signal;HPM_P1;HPM_P2
2022/10/07 00:01:12;;;;;;;2.78;1.30;;;;;;;25.92;37.67;102574.31;5034872;28;20057;-55
2022/10/07 00:03:41;;;;;;;2.47;1.35;;;;;;;25.91;37.74;102567.28;5034819;28;20041;-55
2022/10/07 00:06:20;;;;;;;3.40;1.23;;;;;;;25.86;37.85;102564.53;5034479;28;20033;-54
2022/10/07 00:08:50;;;;;;;2.17;1.40;;;;;;;25.92;37.62;102567.34;5034687;28;20483;-55
2022/10/07 00:11:25;;;;;;;3.47;1.30;;;;;;;25.90;37.54;102555.88;5034416;28;20033;-56
2022/10/07 00:13:53;;;;;;;;;;;;;;;25.90;37.42;102550.63;5035092;28;20030;-55
2022/10/07 00:16:23;;;;;;;1.95;1.10;;;;;;;25.96;37.65;102554.28;5033287;28;20358;-54
2022/10/07 00:18:55;;;;;;;2.35;1.17;;;;;;;25.92;37.64;102545.41;5034446;28;20038;-55
2022/10/07 00:21:24;;;;;;;2.20;1.10;;;;;;;25.91;37.69;102539.28;5034349;28;20036;-55
2022/10/07 00:23:53;;;;;;;2.97;1.17;;;;;;;25.85;37.59;102540.81;5034457;28;20037;-55
2022/10/07 00:26:24;;;;;;;2.72;1.02;;;;;;;25.86;37.55;102537.34;5034337;28;20045;-55
2022/10/07 00:28:53;;;;;;;1.83;1.00;;;;;;;25.91;37.53;102530.47;5033900;28;20025;-55
2022/10/07 00:31:24;;;;;;;1.85;0.95;;;;;;;25.95;37.10;102519.22;5034157;28;20029;-55
2022/10/07 00:33:54;;;;;;;1.42;0.77;;;;;;;25.90;37.48;102523.44;5034312;28;20021;-55
2022/10/07 00:36:25;;;;;;;2.10;1.00;;;;;;;25.83;37.57;102522.34;5033012;28;20084;-54
2022/10/07 00:38:56;;;;;;;4.45;1.23;;;;;;;25.86;37.54;102514.56;5034076;28;20558;-55
2022/10/07 00:41:31;;;;;;;2.65;0.95;;;;;;;25.88;37.42;102520.75;5033932;28;20462;-53
2022/10/07 00:44:00;;;;;;;3.00;1.10;;;;;;;25.84;37.54;102516.25;5034039;28;20064;-55
2022/10/07 00:46:34;;;;;;;3.05;1.08;;;;;;;25.83;37.36;102514.47;5032774;28;20475;-55
2022/10/07 00:49:07;;;;;;;2.38;1.08;;;;;;;25.79;37.71;102512.63;5032759;28;20072;-55
2022/10/07 00:51:36;;;;;;;2.40;1.05;;;;;;;25.72;37.61;102513.28;5032767;28;20037;-56
2022/10/07 00:54:07;;;;;;;2.17;1.00;;;;;;;25.71;37.51;102503.59;5032875;28;20021;-56
2022/10/07 00:56:36;;;;;;;3.58;1.50;;;;;;;25.71;37.77;102499.25;5034033;28;20026;-54
2022/10/07 00:59:04;;;;;;;3.70;1.52;;;;;;;25.83;37.51;102503.09;5033935;28;20117;-54
2022/10/07 01:01:33;;;;;;;2.33;1.17;;;;;;;25.79;37.56;102492.47;5033766;28;20025;-55
2022/10/07 01:04:02;;;;;;;1.75;0.80;;;;;;;25.78;37.50;102492.44;5033273;28;20029;-55
2022/10/07 01:06:31;;;;;;;2.45;1.00;;;;;;;25.76;37.49;102492.38;5033566;28;20030;-54
2022/10/07 01:08:59;;;;;;;1.92;0.90;;;;;;;25.74;37.60;102487.94;5033396;28;20055;-54
2022/10/07 01:11:55;;;;;;;2.17;0.90;;;;;;;25.71;37.35;102483.47;5033392;28;20022;-55
2022/10/07 01:14:35;;;;;;;2.42;0.90;;;;;;;25.69;37.54;102485.16;5032753;28;20463;-54
2022/10/07 01:17:22;;;;;;;1.50;0.80;;;;;;;25.71;37.49;102482.56;5033490;28;20026;-55
2022/10/07 01:20:13;;;;;;;1.95;0.77;;;;;;;25.63;37.84;102478.00;5032639;28;20041;-55
2022/10/07 01:23:07;;;;;;;1.48;0.70;;;;;;;25.62;37.75;102476.22;5032338;28;20372;-54
2022/10/07 01:26:14;;;;;;;3.20;1.23;;;;;;;25.70;37.63;102468.56;5029635;28;20479;-53
2022/10/07 01:28:47;;;;;;;2.10;0.75;;;;;;;25.65;37.36;102467.53;5026048;28;20128;-55
2022/10/07 01:31:19;;;;;;;3.13;1.17;;;;;;;25.58;37.71;102463.81;5031987;28;20040;-53
2022/10/07 01:33:49;;;;;;;2.72;0.90;;;;;;;25.61;37.41;102460.38;5015620;28;20026;-53
2022/10/07 01:36:20;;;;;;;1.25;0.50;;;;;;;25.61;37.37;102456.03;5031962;28;20029;-52
2022/10/07 01:39:01;;;;;;;2.03;1.10;;;;;;;25.60;37.64;102455.97;5032816;28;20104;-55
2022/10/07 01:41:30;;;;;;;1.95;0.77;;;;;;;25.59;37.70;102455.09;5030311;28;20048;-54
2022/10/07 01:43:59;;;;;;;1.45;0.80;;;;;;;25.54;37.74;102445.28;5032913;28;20033;-55
2022/10/07 01:46:29;;;;;;;1.70;0.63;;;;;;;25.56;37.81;102441.84;5033105;28;20032;-54
2022/10/07 01:48:57;;;;;;;3.40;0.85;;;;;;;25.54;37.48;102440.91;5032909;28;20390;-55
2022/10/07 01:51:29;;;;;;;1.13;0.52;;;;;;;25.54;37.80;102432.16;5086418;22;20049;-55
2022/10/07 01:54:01;;;;;;;2.22;0.80;;;;;;;25.54;37.44;102424.28;5032056;28;21044;-53
2022/10/07 01:56:49;;;;;;;2.60;0.60;;;;;;;25.55;37.56;102424.31;5031173;28;20020;-55
2022/10/07 01:59:37;;;;;;;5.03;0.80;;;;;;;25.56;37.64;102420.84;5028490;28;20406;-55
2022/10/07 02:02:13;;;;;;;1.38;0.60;;;;;;;25.46;37.49;102413.53;5028311;28;20030;-53
2022/10/07 02:05:19;;;;;;;0.93;0.65;;;;;;;25.49;37.52;102403.09;5032433;28;20130;-53
2022/10/07 02:08:07;;;;;;;3.03;0.90;;;;;;;25.58;37.27;102402.47;5025286;28;20475;-55
2022/10/07 02:10:55;;;;;;;1.40;0.65;;;;;;;25.51;37.30;102387.41;5015077;28;20042;-54
2022/10/07 02:13:25;;;;;;;2.65;0.60;;;;;;;25.58;37.42;102394.59;5032371;28;20049;-53
2022/10/07 02:16:11;;;;;;;1.08;0.60;;;;;;;25.46;37.43;102382.88;5032427;28;20021;-55
2022/10/07 02:18:40;;;;;;;0.70;0.52;;;;;;;25.46;37.38;102390.78;5030999;28;20096;-54
2022/10/07 02:21:10;;;;;;;2.15;0.90;;;;;;;25.48;37.47;102386.44;5030985;28;20028;-52
2022/10/07 02:23:40;;;;;;;0.77;0.55;;;;;;;25.47;37.33;102383.78;5032096;28;20064;-55
2022/10/07 02:26:12;;;;;;;1.35;0.63;;;;;;;25.47;37.29;102381.16;5014683;28;20395;-53
2022/10/07 02:28:42;;;;;;;1.85;0.90;;;;;;;25.43;37.38;102369.66;5032198;28;20026;-55
2022/10/07 02:31:12;;;;;;;3.50;0.80;;;;;;;25.43;37.27;102374.91;5030945;28;20022;-55
2022/10/07 02:33:41;;;;;;;1.73;0.57;;;;;;;25.45;37.63;102374.97;5032166;28;20029;-53
2022/10/07 02:36:22;;;;;;;1.27;0.55;;;;;;;25.41;37.60;102362.56;5032115;28;20032;-54
2022/10/07 02:38:50;;;;;;;1.98;0.80;;;;;;;25.46;37.31;102361.00;5032066;28;20025;-54
2022/10/07 02:41:31;;;;;;;2.55;0.70;;;;;;;25.44;37.41;102362.69;5031941;28;20104;-53
2022/10/07 02:44:15;;;;;;;1.30;0.55;;;;;;;25.45;37.64;102361.84;5031996;28;20387;-55
2022/10/07 02:46:49;;;;;;;2.45;0.70;;;;;;;25.40;37.13;102358.16;5031015;28;20432;-54
2022/10/07 02:49:19;;;;;;;2.63;0.88;;;;;;;25.36;37.30;102356.25;5032011;28;20029;-53
2022/10/07 02:51:56;;;;;;;1.65;0.60;;;;;;;25.35;37.27;102360.66;5031144;28;20175;-54
2022/10/07 02:54:32;;;;;;;1.92;0.73;;;;;;;25.33;37.62;102362.34;5035773;28;20029;-55
2022/10/07 02:57:01;;;;;;;1.20;0.55;;;;;;;25.39;37.66;102359.00;5035935;28;20383;-54
2022/10/07 02:59:30;;;;;;;0.50;0.45;;;;;;;25.40;37.61;102352.91;5035529;28;20033;-55
2022/10/07 03:02:01;;;;;;;2.50;0.80;;;;;;;25.37;37.37;102355.44;5034258;28;20021;-54
2022/10/07 03:04:30;;;;;;;2.13;0.60;;;;;;;25.38;37.33;102347.59;5018030;28;20028;-54
2022/10/07 03:07:00;;;;;;;1.48;0.80;;;;;;;25.39;37.31;102341.50;5034421;28;20041;-54
2022/10/07 03:09:29;;;;;;;0.98;0.60;;;;;;;25.35;37.52;102342.25;5035153;28;20538;-54
2022/10/07 03:11:57;;;;;;;1.00;0.40;;;;;;;25.32;37.27;102342.16;5035116;28;20033;-55
2022/10/07 03:14:26;;;;;;;1.58;0.70;;;;;;;25.34;37.47;102336.09;5035384;28;20104;-55
2022/10/07 03:16:54;;;;;;;3.42;0.60;;;;;;;25.33;37.26;102336.94;5035439;28;20084;-55
2022/10/07 03:19:23;;;;;;;1.13;0.57;;;;;;;25.31;37.14;102328.16;5034039;28;20391;-53
2022/10/07 03:21:53;;;;;;;0.75;0.30;;;;;;;25.30;37.28;102330.72;5035062;28;20100;-54
2022/10/07 03:24:21;;;;;;;1.15;0.57;;;;;;;25.31;37.48;102332.50;5035129;28;20128;-54
2022/10/07 03:26:50;;;;;;;1.77;0.50;;;;;;;25.30;37.57;102326.38;5035223;28;20029;-54
2022/10/07 03:29:19;;;;;;;1.50;0.60;;;;;;;25.35;37.39;102331.75;5034996;28;20053;-53
2022/10/07 03:31:47;;;;;;;2.63;0.68;;;;;;;25.27;37.33;102328.00;5034931;28;20087;-54
2022/10/07 03:34:16;;;;;;;0.93;0.55;;;;;;;25.28;37.54;102321.91;5034888;28;20040;-54
2022/10/07 03:36:44;;;;;;;4.53;0.80;;;;;;;25.30;37.15;102326.38;5034816;28;20025;-55
2022/10/07 03:39:13;;;;;;;1.77;0.73;;;;;;;25.22;37.21;102317.38;5035053;28;20028;-53
2022/10/07 03:41:41;;;;;;;0.80;0.50;;;;;;;25.30;37.00;102321.13;5034785;28;20060;-54
2022/10/07 03:44:10;;;;;;;1.02;0.52;;;;;;;25.24;37.02;102320.94;5035253;28;20037;-53
2022/10/07 03:46:38;;;;;;;1.20;0.50;;;;;;;25.28;37.14;102319.28;5034320;28;20438;-51
2022/10/07 03:49:07;;;;;;;1.92;0.90;;;;;;;25.34;36.98;102317.72;5034563;28;20029;-51
2022/10/07 03:51:35;;;;;;;1.27;0.47;;;;;;;25.27;37.19;102322.75;5034397;28;20042;-52
2022/10/07 03:54:04;;;;;;;1.05;0.50;;;;;;;25.24;37.19;102320.03;5034654;28;20033;-51
2022/10/07 03:56:33;;;;;;;2.85;0.50;;;;;;;25.24;37.35;102328.81;5034549;28;20033;-54
2022/10/07 03:59:02;;;;;;;1.63;0.55;;;;;;;25.21;37.21;102328.72;5034648;28;20101;-54
2022/10/07 04:01:30;;;;;;;0.57;0.30;;;;;;;25.22;37.55;102327.00;5034309;28;20029;-53
2022/10/07 04:03:59;;;;;;;1.23;0.50;;;;;;;25.14;37.15;102326.78;5032333;28;20514;-55
2022/10/07 04:06:28;;;;;;;1.20;0.63;;;;;;;25.27;37.02;102323.66;5033134;28;20060;-54
2022/10/07 04:08:57;;;;;;;1.02;0.60;;;;;;;25.17;37.26;102322.50;5034291;28;20025;-54
2022/10/07 04:11:25;;;;;;;2.55;0.77;;;;;;;25.14;37.29;102311.00;5034104;28;20033;-54
2022/10/07 04:13:54;;;;;;;1.08;0.70;;;;;;;25.21;37.19;102315.59;5034134;28;20471;-54
2022/10/07 04:16:22;;;;;;;0.98;0.70;;;;;;;25.17;36.94;102313.69;5033118;28;20112;-54
2022/10/07 04:18:54;;;;;;;2.50;0.70;;;;;;;25.21;36.89;102309.44;5034020;28;20025;-54
2022/10/07 04:21:22;;;;;;;1.15;0.70;;;;;;;25.15;36.91;102305.78;5033969;28;20037;-54
2022/10/07 04:23:51;;;;;;;1.48;0.50;;;;;;;25.13;37.43;102307.47;5033940;28;20040;-55
2022/10/07 04:26:20;;;;;;;1.15;0.50;;;;;;;25.15;37.21;102307.53;5034125;28;20052;-54
2022/10/07 04:28:48;;;;;;;1.65;0.60;;;;;;;25.18;37.07;102315.47;5033861;28;20017;-54
2022/10/07 04:31:17;;;;;;;0.47;0.38;;;;;;;25.13;37.06;102304.84;5032669;28;20395;-54
2022/10/07 04:33:45;;;;;;;0.60;0.30;;;;;;;25.20;37.16;102310.28;5034422;28;20083;-51
2022/10/07 04:36:14;;;;;;;3.20;0.80;;;;;;;25.17;37.01;102316.31;5034368;28;20028;-54
2022/10/07 04:38:44;;;;;;;1.48;0.50;;;;;;;25.14;36.92;102313.63;5033873;28;20021;-54
2022/10/07 04:41:12;;;;;;;2.63;0.60;;;;;;;25.24;37.17;102314.75;5032441;28;20392;-54
2022/10/07 04:43:41;;;;;;;1.27;0.55;;;;;;;25.16;37.00;102304.94;5033799;28;20033;-54
2022/10/07 04:46:12;;;;;;;1.58;0.52;;;;;;;25.12;36.93;102307.44;5033685;28;20025;-54
2022/10/07 04:48:44;;;;;;;0.82;0.40;;;;;;;25.09;37.45;102304.72;5033721;28;20032;-54
2022/10/07 04:51:13;;;;;;;1.52;0.60;;;;;;;25.14;37.04;102305.75;5033162;28;20422;-54
2022/10/07 04:53:42;;;;;;;0.80;0.50;;;;;;;25.07;37.02;102296.78;5032760;28;20051;-52
2022/10/07 04:56:11;;;;;;;1.00;0.60;;;;;;;25.13;37.26;102296.97;5033740;28;20482;-55
2022/10/07 04:58:39;;;;;;;1.02;0.60;;;;;;;25.10;37.15;102306.50;5033406;28;20477;-55
2022/10/07 05:01:10;;;;;;;2.30;0.70;;;;;;;25.08;36.97;102298.56;5033440;28;20040;-54
2022/10/07 05:03:39;;;;;;;1.02;0.40;;;;;;;25.12;37.03;102304.81;5033545;28;20423;-54
2022/10/07 05:06:09;;;;;;;1.08;0.68;;;;;;;25.10;36.80;102293.38;5033452;28;20029;-54
2022/10/07 05:08:37;;;;;;;0.68;0.40;;;;;;;25.08;37.17;102297.69;5033584;28;20021;-51
2022/10/07 05:11:06;;;;;;;2.30;0.40;;;;;;;25.06;37.36;102297.66;5033047;28;20029;-54
2022/10/07 05:13:39;;;;;;;0.93;0.60;;;;;;;25.02;37.31;102296.66;5033224;28;20030;-53
2022/10/07 05:16:08;;;;;;;2.03;0.50;;;;;;;25.08;37.21;102300.31;5033215;28;20028;-53
2022/10/07 05:18:37;;;;;;;2.22;0.60;;;;;;;25.02;37.12;102295.78;5033004;28;20026;-55
2022/10/07 05:21:07;;;;;;;0.52;0.22;;;;;;;24.97;37.25;102289.50;5033048;28;20060;-53
2022/10/07 05:23:36;;;;;;;0.73;0.43;;;;;;;24.97;37.22;102290.41;5032994;28;20026;-54
2022/10/07 05:26:07;;;;;;;0.80;0.40;;;;;;;24.98;37.03;102296.53;5032931;28;20029;-54
2022/10/07 05:28:36;;;;;;;0.73;0.40;;;;;;;24.97;37.08;102290.41;5032716;28;20021;-54
2022/10/07 05:31:14;;;;;;;1.40;0.50;;;;;;;24.96;37.43;102291.25;5032889;28;20556;-52
2022/10/07 05:33:43;;;;;;;2.38;0.35;;;;;;;24.98;37.36;102289.56;5032924;28;20065;-54
2022/10/07 05:36:12;;;;;;;1.70;0.57;;;;;;;25.01;36.93;102288.75;5032889;28;20028;-51
2022/10/07 05:38:40;;;;;;;1.15;0.60;;;;;;;24.98;37.10;102291.28;5032787;28;20026;-54
2022/10/07 05:41:11;;;;;;;2.30;0.52;;;;;;;24.96;37.01;102286.00;5032412;28;20489;-54
2022/10/07 05:43:42;;;;;;;2.17;0.50;;;;;;;24.97;37.44;102287.78;5032694;28;20508;-54
2022/10/07 05:46:14;;;;;;;0.68;0.40;;;;;;;25.02;37.02;102293.16;5032842;28;20025;-51
2022/10/07 05:48:48;;;;;;;1.65;0.63;;;;;;;25.01;36.76;102276.50;5032467;28;20076;-54
2022/10/07 05:51:18;;;;;;;0.73;0.30;;;;;;;25.05;37.14;102282.75;5032362;28;20037;-54
2022/10/07 05:53:47;;;;;;;2.22;0.40;;;;;;;25.03;37.14;102279.19;5032453;28;20045;-52
2022/10/07 05:56:20;;;;;;;1.08;0.30;;;;;;;25.03;37.01;102276.56;5032795;28;20075;-54
2022/10/07 05:58:49;;;;;;;1.02;0.45;;;;;;;25.06;37.24;102273.13;5032496;28;20613;-51
2022/10/07 06:01:20;;;;;;;3.67;0.52;;;;;;;25.06;37.09;102262.63;5011249;28;20049;-48
2022/10/07 06:03:58;;;;;;;2.90;0.50;;;;;;;25.00;36.81;102268.59;5008137;28;20057;-54
2022/10/07 06:06:28;;;;;;;1.75;0.90;;;;;;;25.01;36.84;102273.00;5011592;28;20026;-53
2022/10/07 06:13:06;;;;;;;3.78;0.93;;;;;;;25.02;36.88;102270.41;5011608;28;20493;-53
2022/10/07 06:14:32;;;;;;;1.17;0.60;;;;;;;25.23;36.16;102279.75;5006077;28;20135;-50
2022/10/07 06:17:00;;;;;;;1.48;0.60;;;;;;;25.14;36.38;102276.88;5011524;28;20529;-53
2022/10/07 06:19:29;;;;;;;1.08;0.50;;;;;;;25.12;36.85;102270.69;5012286;28;20037;-54
2022/10/07 06:21:57;;;;;;;1.10;0.47;;;;;;;25.10;36.40;102278.50;5013728;28;20022;-53
2022/10/07 06:24:26;;;;;;;1.42;0.70;;;;;;;24.97;36.61;102245.78;5007753;28;20034;-51
2022/10/07 06:26:55;;;;;;;3.72;0.70;;;;;;;25.21;36.37;102277.94;5007029;28;20030;-53
2022/10/07 06:29:22;;;;;;;1.08;0.47;;;;;;;25.02;36.75;102253.78;5015061;28;20053;-49
2022/10/07 06:31:51;;;;;;;3.53;0.80;;;;;;;25.09;36.59;102268.84;5015091;28;20032;-53
2022/10/07 06:34:19;;;;;;;3.88;0.93;;;;;;;25.07;36.99;102270.53;5015664;28;20088;-53
2022/10/07 06:36:48;;;;;;;1.15;0.43;;;;;;;25.08;36.52;102253.06;5015536;28;20021;-52
2022/10/07 06:39:17;;;;;;;4.35;0.75;;;;;;;25.11;36.41;102255.78;5014706;28;20104;-51
2022/10/07 06:41:46;;;;;;;2.17;0.50;;;;;;;25.10;36.56;102257.50;5019277;28;20029;-51
2022/10/07 06:44:13;;;;;;;3.30;0.52;;;;;;;25.12;36.85;102254.94;5015229;28;20041;-54
2022/10/07 06:46:42;;;;;;;0.75;0.52;;;;;;;25.09;36.76;102255.72;5014882;28;20501;-54
2022/10/07 06:49:10;;;;;;;1.73;0.70;;;;;;;25.10;36.61;102238.25;5013511;28;20055;-54
2022/10/07 06:51:38;;;;;;;1.50;0.75;;;;;;;25.07;36.77;102248.66;5018837;28;20050;-53
2022/10/07 06:54:06;;;;;;;1.42;0.50;;;;;;;24.99;37.05;102235.31;5015342;28;20077;-54
2022/10/07 06:56:35;;;;;;;2.35;0.75;;;;;;;25.05;36.69;102256.50;5015131;28;20108;-52
2022/10/07 06:59:03;;;;;;;1.48;0.70;;;;;;;25.11;36.57;102259.28;5014735;28;20026;-53
2022/10/07 07:01:32;;;;;;;2.95;0.63;;;;;;;25.13;36.94;102267.22;5014913;28;20479;-53
2022/10/07 07:04:01;;;;;;;1.60;0.60;;;;;;;25.10;36.67;102261.88;5013789;28;20096;-52
2022/10/07 07:06:29;;;;;;;6.05;1.23;;;;;;;25.12;36.84;102263.69;5015165;28;20034;-53
2022/10/07 07:09:01;;;;;;;2.03;0.60;;;;;;;25.14;36.96;102262.00;5011490;28;20414;-51
2022/10/07 07:11:42;;;;;;;1.80;0.80;;;;;;;25.09;36.60;102260.09;5014865;28;20065;-55
2022/10/07 07:14:12;;;;;;;4.03;0.65;;;;;;;25.17;36.91;102269.06;5011271;28;20028;-52
2022/10/07 07:16:42;;;;;;;2.10;0.70;;;;;;;25.14;36.76;102277.75;5013603;28;20030;-55
2022/10/07 07:19:12;;;;;;;3.33;0.63;;;;;;;25.17;36.72;102277.84;5014447;28;20072;-54
2022/10/07 07:21:41;;;;;;;1.00;0.50;;;;;;;25.16;36.85;102272.53;5018774;28;20022;-54
2022/10/07 07:24:10;;;;;;;2.88;0.50;;;;;;;25.18;36.85;102274.38;5013451;28;20104;-53
2022/10/07 07:26:39;;;;;;;4.03;0.77;;;;;;;25.17;36.99;102274.31;5018535;28;20022;-54
2022/10/07 07:29:07;;;;;;;3.13;0.60;;;;;;;25.25;36.83;102279.78;5014101;28;20044;-51
2022/10/07 07:31:37;;;;;;;1.27;0.43;;;;;;;25.22;36.78;102277.97;5033773;28;20053;-54
2022/10/07 07:34:10;;;;;;;3.22;0.73;;;;;;;25.18;36.78;102281.34;5017561;28;20032;-54
2022/10/07 07:36:40;;;;;;;6.22;0.55;;;;;;;25.19;36.92;102283.13;5014494;28;20053;-53
2022/10/07 07:39:11;;;;;;;2.65;0.50;;;;;;;25.29;36.54;102287.81;5015431;28;20045;-52
2022/10/07 07:41:41;;;;;;;2.22;0.70;;;;;;;25.37;36.37;102290.66;5017879;28;20447;-54
2022/10/07 07:44:12;;;;;;;2.92;0.45;;;;;;;25.38;36.37;102288.91;5016995;28;20167;-54
2022/10/07 07:46:43;;;;;;;1.55;0.68;;;;;;;25.39;36.30;102278.47;5014408;28;20097;-53
2022/10/07 07:49:13;;;;;;;1.08;0.50;;;;;;;25.44;36.32;102283.88;5012273;28;20026;-55
2022/10/07 07:51:41;;;;;;;1.10;0.60;;;;;;;25.44;36.28;102283.88;5021865;28;20399;-54
2022/10/07 07:54:10;;;;;;;1.55;0.57;;;;;;;25.43;36.37;102276.84;5014380;28;20033;-54
2022/10/07 07:56:39;;;;;;;0.93;0.45;;;;;;;25.44;36.34;102282.13;5015546;28;20104;-55
2022/10/07 07:59:08;;;;;;;1.23;0.70;;;;;;;25.44;36.33;102278.63;5013831;28;20024;-50
2022/10/07 08:01:36;;;;;;;1.20;0.68;;;;;;;25.43;36.29;102272.44;5010340;28;20442;-54
2022/10/07 08:04:05;;;;;;;3.60;0.70;;;;;;;25.44;36.45;102270.72;5014532;28;20531;-55
2022/10/07 08:06:33;;;;;;;0.60;0.40;;;;;;;25.49;36.54;102274.34;5012693;28;20040;-54
2022/10/07 08:09:01;;;;;;;2.47;0.47;;;;;;;25.52;36.53;102273.56;5014493;28;20080;-55
2022/10/07 08:11:31;;;;;;;1.02;0.43;;;;;;;25.53;36.37;102270.97;5014630;28;20022;-54
2022/10/07 08:14:02;;;;;;;4.85;0.85;;;;;;;25.60;36.54;102269.41;5013621;28;20026;-54
2022/10/07 08:16:30;;;;;;;1.50;0.60;;;;;;;25.59;36.34;102265.91;5014264;28;20010;-54
2022/10/07 08:18:58;;;;;;;0.90;0.50;;;;;;;25.66;36.51;102266.03;5013159;28;20534;-54
2022/10/07 08:21:32;;;;;;;1.70;0.60;;;;;;;25.66;36.66;102271.28;5013635;28;20588;-52
2022/10/07 08:24:01;;;;;;;1.90;0.40;;;;;;;25.65;36.53;102269.53;5014202;28;20034;-55
2022/10/07 08:26:31;;;;;;;4.07;1.08;;;;;;;25.66;36.22;102266.94;5013107;28;20396;-54
2022/10/07 08:29:01;;;;;;;2.33;0.35;;;;;;;25.70;36.55;102266.19;5014424;28;20026;-52
2022/10/07 08:31:29;;;;;;;1.58;0.45;;;;;;;25.71;36.31;102259.16;5014235;28;20034;-54
2022/10/07 08:34:00;;;;;;;2.05;0.65;;;;;;;25.74;36.51;102277.66;5014329;28;20025;-55
2022/10/07 08:36:31;;;;;;;4.10;0.73;;;;;;;25.72;36.65;102275.00;5014274;28;20030;-54
2022/10/07 08:39:01;;;;;;;2.17;0.68;;;;;;;25.74;36.53;102270.66;5014061;28;20034;-54
2022/10/07 08:41:38;;;;;;;0.75;0.40;;;;;;;25.75;36.59;102280.31;5014137;28;20026;-54
2022/10/07 08:44:21;;;;;;;1.05;0.55;;;;;;;25.79;36.73;102282.19;5013315;28;20099;-54
2022/10/07 08:47:12;;;;;;;1.30;0.50;;;;;;;25.80;36.71;102280.47;5012425;28;20156;-54
2022/10/07 08:50:08;;;;;;;1.73;0.55;;;;;;;25.83;36.31;102277.88;5009644;28;20053;-53
2022/10/07 08:52:38;;;;;;;1.65;0.65;;;;;;;25.89;36.42;102285.06;5013470;28;20606;-54
2022/10/07 08:55:45;;;;;;;1.60;0.95;;;;;;;25.87;36.53;102279.75;5013740;28;20034;-54
2022/10/07 08:58:42;;;;;;;1.40;0.60;;;;;;;25.91;36.45;102283.34;5012211;28;20030;-55
2022/10/07 09:01:30;;;;;;;2.10;0.60;;;;;;;25.93;36.51;102287.81;5005365;28;20030;-54
2022/10/07 09:04:09;;;;;;;1.45;0.70;;;;;;;25.93;36.67;102282.53;5012848;28;20045;-53
2022/10/07 09:06:43;;;;;;;1.52;0.40;;;;;;;26.00;36.68;102278.31;5013510;28;20030;-55
2022/10/07 09:09:15;;;;;;;0.95;0.47;;;;;;;25.98;36.61;102284.41;5012193;28;20076;-55
2022/10/07 09:11:46;;;;;;;2.83;0.73;;;;;;;26.02;36.43;102281.88;5013395;28;20468;-54
2022/10/07 09:14:38;;;;;;;1.23;0.63;;;;;;;25.94;36.63;102276.44;5011991;28;20038;-54
2022/10/07 09:17:12;;;;;;;1.67;0.40;;;;;;;26.01;36.59;102284.47;5012848;28;20060;-54
2022/10/07 09:19:45;;;;;;;0.95;0.65;;;;;;;26.03;36.72;102288.03;4995833;28;20054;-54
2022/10/07 09:22:27;;;;;;;1.95;0.60;;;;;;;26.06;36.45;102288.97;5013254;28;20112;-55
2022/10/07 09:25:19;;;;;;;1.77;0.55;;;;;;;26.07;36.44;102285.50;4995942;28;20030;-53
2022/10/07 09:27:49;;;;;;;2.67;0.68;;;;;;;26.13;36.66;102282.19;5013209;28;20026;-54
2022/10/07 09:30:17;;;;;;;1.85;0.60;;;;;;;26.15;36.42;102282.22;5013196;28;20022;-55
2022/10/07 09:32:48;;;;;;;2.25;0.90;;;;;;;26.17;36.66;102278.75;5011584;28;20030;-53
2022/10/07 09:35:20;;;;;;;1.00;0.50;;;;;;;26.18;36.64;102277.91;5011954;28;20045;-54
2022/10/07 09:38:02;;;;;;;4.68;0.80;;;;;;;26.19;36.08;102279.69;5013175;28;20046;-54
2022/10/07 09:40:32;;;;;;;2.95;0.73;;;;;;;26.22;36.43;102274.50;5012870;28;20400;-54
2022/10/07 09:43:00;;;;;;;4.57;0.90;;;;;;;26.22;36.47;102264.00;5013017;28;20482;-55
2022/10/07 09:45:33;;;;;;;2.00;0.70;;;;;;;26.18;36.43;102261.25;5013011;28;20026;-54
2022/10/07 09:48:06;;;;;;;1.55;0.82;;;;;;;26.23;36.41;102265.78;5012753;28;20026;-54
2022/10/07 09:50:38;;;;;;;3.03;1.13;;;;;;;26.23;36.38;102265.78;5012779;28;20026;-55
2022/10/07 09:53:19;;;;;;;3.65;0.77;;;;;;;26.21;36.63;102256.09;5012714;28;20034;-54
2022/10/07 09:55:48;;;;;;;6.15;1.02;;;;;;;26.20;36.78;102257.81;5012785;28;20037;-53
2022/10/07 09:58:36;;;;;;;3.58;0.93;;;;;;;26.18;36.58;102256.00;5012463;28;20030;-54
2022/10/07 10:01:11;;;;;;;1.33;0.93;;;;;;;26.27;36.36;102257.97;5012482;28;20029;-54
2022/10/07 10:03:38;;;;;;;4.70;1.33;;;;;;;26.30;36.51;102258.03;5010922;28;20029;-53
2022/10/07 10:06:07;;;;;;;3.28;0.77;;;;;;;26.29;36.39;102249.25;4989923;28;20463;-49
2022/10/07 10:08:37;;;;;;;2.55;0.70;;;;;;;26.30;36.52;102244.88;5011107;28;20026;-53
2022/10/07 10:11:24;;;;;;;2.25;0.90;;;;;;;26.16;36.67;102221.75;5011236;28;20113;-55
2022/10/07 10:13:52;;;;;;;2.35;0.60;;;;;;;26.26;36.54;102243.03;5007654;28;20476;-55
2022/10/07 10:16:33;;;;;;;2.25;0.93;;;;;;;26.25;36.66;102242.13;5009565;28;20030;-53
2022/10/07 10:19:03;;;;;;;2.30;0.73;;;;;;;26.32;36.61;102244.06;5010018;28;20364;-54
2022/10/07 10:21:35;;;;;;;3.78;0.82;;;;;;;26.28;36.58;102238.69;5011318;28;20026;-53
2022/10/07 10:24:05;;;;;;;3.22;0.90;;;;;;;26.29;36.76;102241.34;5011023;28;20118;-51
2022/10/07 10:26:58;;;;;;;1.17;0.70;;;;;;;26.24;36.89;102235.09;5009437;28;20057;-55
2022/10/07 10:29:52;;;;;;;2.63;0.90;;;;;;;26.27;36.95;102229.91;5020090;28;20034;-55
2022/10/07 10:32:27;;;;;;;3.80;0.95;;;;;;;26.30;36.88;102221.22;5013886;28;20037;-51
2022/10/07 10:35:01;;;;;;;3.38;1.08;;;;;;;26.30;36.65;102227.34;5022332;28;20044;-48
2022/10/07 10:37:36;;;;;;;3.78;1.00;;;;;;;26.26;36.88;102227.25;5021402;28;20049;-55
2022/10/07 10:40:19;;;;;;;2.58;1.05;;;;;;;26.27;36.74;102223.75;5019193;28;20025;-54
2022/10/07 10:43:00;;;;;;;2.95;0.85;;;;;;;26.30;36.98;102223.84;5013699;28;20045;-55
2022/10/07 10:45:55;;;;;;;2.10;0.68;;;;;;;26.29;36.93;102227.31;5013201;28;20029;-55
2022/10/07 10:48:43;;;;;;;3.30;0.95;;;;;;;26.30;36.78;102229.09;5011520;28;20049;-53
2022/10/07 10:51:22;;;;;;;4.05;0.80;;;;;;;26.33;36.72;102221.25;5016391;28;20140;-52
2022/10/07 10:54:04;;;;;;;4.32;1.23;;;;;;;26.27;36.79;102211.50;5014656;28;20104;-54
2022/10/07 10:56:40;;;;;;;3.38;0.70;;;;;;;26.35;36.64;102212.56;5013098;28;20441;-53
2022/10/07 10:59:36;;;;;;;2.58;1.08;;;;;;;26.33;36.95;102206.38;5016515;28;20105;-46
2022/10/07 11:02:42;;;;;;;6.30;1.10;;;;;;;26.35;36.96;102207.31;5006610;28;20711;-52
2022/10/07 11:05:37;;;;;;;2.55;0.98;;;;;;;26.35;36.60;102206.41;5011133;28;20033;-52
2022/10/07 11:08:16;;;;;;;2.75;0.77;;;;;;;26.43;36.73;102207.47;5010475;28;20113;-54
2022/10/07 11:10:57;;;;;;;6.35;1.20;;;;;;;26.40;36.49;102212.66;5009967;28;20034;-55
2022/10/07 11:14:02;;;;;;;1.85;0.68;;;;;;;26.41;36.69;102203.91;5014332;28;20041;-54
2022/10/07 11:16:51;;;;;;;3.40;1.00;;;;;;;26.45;36.65;102202.22;5011245;28;20037;-55
2022/10/07 11:19:23;;;;;;;3.20;0.90;;;;;;;26.47;36.62;102200.53;5014971;28;20033;-55
2022/10/07 11:21:52;;;;;;;2.42;0.77;;;;;;;26.47;36.56;102193.53;5013275;28;20588;-54
2022/10/07 11:24:25;;;;;;;2.92;0.90;;;;;;;26.45;36.67;102191.72;5015350;28;20033;-55
2022/10/07 11:27:00;;;;;;;2.53;0.80;;;;;;;26.45;36.60;102191.72;5011562;28;20149;-52
2022/10/07 11:29:31;;;;;;;3.83;1.17;;;;;;;26.44;36.71;102182.94;5020296;28;20025;-54
2022/10/07 11:32:06;;;;;;;1.95;0.82;;;;;;;26.44;36.88;102174.16;5022522;28;20030;-54
2022/10/07 11:34:42;;;;;;;1.63;0.70;;;;;;;26.42;36.72;102179.38;5015743;28;20113;-55
2022/10/07 11:37:33;;;;;;;2.42;0.90;;;;;;;26.44;36.88;102179.41;5018978;28;20529;-54
2022/10/07 11:40:04;;;;;;;4.18;0.93;;;;;;;26.47;36.41;102169.84;5017391;28;20018;-54
2022/10/07 11:42:39;;;;;;;1.70;0.63;;;;;;;26.47;36.85;102176.84;5021400;28;20022;-54
2022/10/07 11:45:11;;;;;;;3.28;1.02;;;;;;;26.48;36.80;102174.22;5028034;28;20377;-53
2022/10/07 11:47:43;;;;;;;3.10;0.95;;;;;;;26.42;36.97;102160.97;5014435;28;20022;-51
2022/10/07 11:50:15;;;;;;;2.22;0.68;;;;;;;26.50;36.60;102156.75;5016301;28;20057;-54
2022/10/07 11:52:47;;;;;;;1.63;0.70;;;;;;;26.59;36.15;102157.81;5014974;28;20046;-55
2022/10/07 11:55:26;;;;;;;2.85;0.80;;;;;;;26.58;36.56;102148.13;5027786;28;20034;-55